Time;durP1;ratioP1;P1;durP2;ratioP2;P2;SDS_P1;SDS_P2;PMS_P1;PMS_P2;Temp;Humidity;BMP_temperature;BMP_pressure;BME280_temperature;BME280_humidity;BME280_pressure;Samples;Min_cycle;Max_cycle;Signal;HPM_P1;HPM_P2
2021/12/05 00:18:46;;;;;;;4.33;1.60;;;;;;;6.13;90.00;96851.34;5093049;28;20632;-84
2021/12/05 00:21:38;;;;;;;2.90;1.53;;;;;;;6.18;90.15;96851.00;5078930;28;20650;-84
2021/12/05 00:24:12;;;;;;;4.47;1.73;;;;;;;6.18;89.85;96846.66;5069083;28;20630;-84
2021/12/05 00:26:41;;;;;;;4.17;1.67;;;;;;;6.20;90.42;96849.13;5067191;28;20726;-84
2021/12/05 00:49:14;;;;;;;3.97;1.63;;;;;;;5.69;91.52;96857.09;5070602;28;20662;-84
2021/12/05 01:09:18;;;;;;;7.00;1.67;;;;;;;5.33;92.68;96867.34;5027178;28;20659;-84
2021/12/05 01:12:15;;;;;;;3.50;1.90;;;;;;;5.30;92.15;96869.31;5085268;28;20627;-84
2021/12/05 01:15:00;;;;;;;3.70;1.70;;;;;;;5.29;92.62;96868.50;5077721;28;20628;-84
2021/12/05 01:17:40;;;;;;;7.10;2.10;;;;;;;5.29;92.28;96875.41;5058411;28;20636;-84
2021/12/05 01:20:12;;;;;;;3.50;1.37;;;;;;;5.33;92.65;96877.69;5065900;28;20626;-84
2021/12/05 01:22:49;;;;;;;3.80;1.60;;;;;;;5.38;92.11;96878.22;5073251;28;20624;-84
2021/12/05 01:25:28;;;;;;;6.17;1.73;;;;;;;5.44;92.06;96882.13;5044306;28;21282;-84
2021/12/05 01:28:02;;;;;;;3.30;1.70;;;;;;;5.47;91.75;96881.94;5049993;28;20616;-84
2021/12/05 01:30:42;;;;;;;6.97;1.57;;;;;;;5.48;91.34;96875.84;5045606;28;20656;-84
2021/12/05 01:33:19;;;;;;;7.13;2.13;;;;;;;5.55;91.47;96875.31;5057682;28;21047;-84
2021/12/05 01:36:04;;;;;;;4.67;1.57;;;;;;;5.60;91.18;96881.00;5052560;28;20634;-84
2021/12/05 01:38:56;;;;;;;6.70;1.87;;;;;;;5.62;91.12;96894.63;5046455;28;21003;-84
2021/12/05 01:44:50;;;;;;;3.87;1.80;;;;;;;5.59;90.89;96874.16;5071256;28;20628;-83
2021/12/05 01:47:53;;;;;;;2.63;1.60;;;;;;;5.68;90.98;96873.53;5044809;28;20731;-83
2021/12/05 01:53:33;;;;;;;2.40;1.20;;;;;;;5.77;90.88;96888.44;5055055;28;20621;-83
2021/12/05 02:01:59;;;;;;;3.90;1.60;;;;;;;5.87;90.39;96889.47;5042743;28;20628;-83
2021/12/05 02:29:45;;;;;;;4.13;1.20;;;;;;;5.80;88.75;96870.13;5037869;28;20730;-83
2021/12/05 02:32:51;;;;;;;6.17;1.37;;;;;;;5.80;88.52;96857.19;5064261;28;20701;-83
2021/12/05 02:38:36;;;;;;;3.57;1.30;;;;;;;5.76;88.61;96856.59;5075333;28;20644;-83
2021/12/05 02:41:15;;;;;;;4.53;1.53;;;;;;;5.67;89.07;96866.72;5058740;28;20625;-83
2021/12/05 02:43:45;;;;;;;2.83;1.20;;;;;;;5.56;89.31;96858.03;5058878;28;20628;-83
2021/12/05 02:46:16;;;;;;;4.10;1.40;;;;;;;5.49;89.66;96867.13;5067299;28;20631;-83
2021/12/05 02:48:45;;;;;;;5.63;1.40;;;;;;;5.45;89.75;96857.94;5075444;28;20746;-83
2021/12/05 02:51:20;;;;;;;4.67;1.33;;;;;;;5.40;89.77;96868.59;5061475;28;20665;-83
2021/12/05 02:53:55;;;;;;;6.03;1.33;;;;;;;5.38;90.57;96865.31;5057443;28;20652;-83
2021/12/05 02:56:25;;;;;;;3.90;1.60;;;;;;;5.36;89.87;96864.56;5047999;28;20615;-84
2021/12/05 02:58:58;;;;;;;2.40;1.10;;;;;;;5.34;89.09;96852.69;5050893;28;21059;-83
2021/12/05 03:01:35;;;;;;;3.10;1.50;;;;;;;5.38;90.33;96860.13;5052045;28;20623;-83
2021/12/05 03:04:06;;;;;;;5.27;1.07;;;;;;;5.46;90.29;96857.84;5062217;28;20635;-83
2021/12/05 03:06:34;;;;;;;4.33;1.60;;;;;;;5.48;89.77;96845.63;5072214;28;21353;-84
2021/12/05 03:09:09;;;;;;;1.90;1.00;;;;;;;5.58;90.27;96845.81;5056815;28;20654;-83
2021/12/05 03:11:37;;;;;;;10.60;1.80;;;;;;;5.65;90.24;96847.88;5049745;28;20982;-84
2021/12/05 03:14:07;;;;;;;3.27;1.10;;;;;;;5.71;90.17;96848.31;5092485;28;20625;-83
2021/12/05 03:16:37;;;;;;;4.10;1.43;;;;;;;5.73;90.10;96843.03;5051169;28;21225;-84
2021/12/05 03:19:07;;;;;;;2.63;1.23;;;;;;;5.71;90.25;96837.97;5052855;28;20716;-83
2021/12/05 03:21:37;;;;;;;2.27;1.27;;;;;;;5.72;91.06;96842.19;5061159;28;20631;-83
2021/12/05 03:24:08;;;;;;;4.43;1.57;;;;;;;5.78;90.66;96846.16;5092893;28;21194;-83
2021/12/05 03:26:39;;;;;;;6.90;1.57;;;;;;;5.81;90.73;96841.56;5062960;28;20616;-83
2021/12/05 03:29:11;;;;;;;2.07;1.37;;;;;;;5.87;90.96;96827.41;5064479;28;20613;-83
2021/12/05 03:31:39;;;;;;;3.00;1.40;;;;;;;5.91;91.38;96834.84;5060369;28;20661;-83
2021/12/05 03:34:09;;;;;;;3.10;1.50;;;;;;;5.95;91.40;96836.25;5056703;28;20677;-83
2021/12/05 03:36:40;;;;;;;2.63;1.40;;;;;;;5.99;90.79;96848.06;5064217;28;21278;-83
2021/12/05 03:39:11;;;;;;;4.57;1.60;;;;;;;6.00;91.01;96848.88;5076186;28;20643;-84
2021/12/05 03:41:42;;;;;;;4.83;1.63;;;;;;;6.01;91.22;96847.94;5052865;28;20634;-83
2021/12/05 03:44:13;;;;;;;3.10;1.53;;;;;;;5.96;91.27;96848.28;5046037;28;20639;-84
2021/12/05 03:46:42;;;;;;;2.57;1.30;;;;;;;5.89;91.00;96861.75;5046563;28;20643;-83
2021/12/05 03:49:14;;;;;;;4.90;1.70;;;;;;;5.89;91.89;96841.03;5060980;28;20624;-83
2021/12/05 03:51:46;;;;;;;2.33;1.40;;;;;;;5.89;92.13;96844.44;5052018;28;20660;-83
2021/12/05 03:54:16;;;;;;;3.63;1.70;;;;;;;5.89;92.19;96838.47;5056849;28;21207;-83
2021/12/05 03:56:46;;;;;;;4.63;1.70;;;;;;;5.90;91.88;96837.53;5043315;28;21207;-83
2021/12/05 03:59:17;;;;;;;2.47;1.80;;;;;;;5.87;91.48;96842.91;5061539;28;20632;-83
2021/12/05 04:01:48;;;;;;;3.17;1.50;;;;;;;5.86;91.42;96846.44;5093631;28;20714;-83
2021/12/05 04:04:18;;;;;;;9.50;2.27;;;;;;;5.88;91.91;96844.56;5064980;28;20627;-84
2021/12/05 04:06:47;;;;;;;3.30;1.87;;;;;;;5.86;92.12;96833.50;5050714;28;20710;-84
2021/12/05 04:09:19;;;;;;;3.10;1.83;;;;;;;5.87;92.17;96838.56;5050690;28;20660;-83
2021/12/05 04:11:57;;;;;;;4.70;1.63;;;;;;;5.88;92.26;96837.63;5057658;28;20710;-84
2021/12/05 04:14:30;;;;;;;5.40;1.93;;;;;;;5.88;92.58;96840.22;5060908;28;20608;-83
2021/12/05 04:17:00;;;;;;;3.90;2.27;;;;;;;5.89;92.72;96841.84;5045196;28;20627;-83
2021/12/05 04:19:29;;;;;;;3.20;1.43;;;;;;;5.87;92.12;96855.84;5045534;28;21199;-83
2021/12/05 04:22:00;;;;;;;2.87;1.80;;;;;;;5.83;92.82;96847.50;5041830;28;20628;-83
2021/12/05 04:24:33;;;;;;;5.10;1.80;;;;;;;5.81;92.44;96841.56;5044043;28;20624;-83
2021/12/05 04:27:01;;;;;;;4.90;1.97;;;;;;;5.80;92.33;96845.13;5049343;28;20616;-83
2021/12/05 04:29:31;;;;;;;3.17;1.90;;;;;;;5.80;92.40;96849.44;5070766;28;20624;-83
2021/12/05 04:32:00;;;;;;;8.83;2.00;;;;;;;5.81;92.21;96831.22;5058011;28;20698;-83
2021/12/05 04:34:30;;;;;;;2.63;1.30;;;;;;;5.81;92.12;96835.59;5073528;28;20629;-83
2021/12/05 04:36:59;;;;;;;2.93;1.60;;;;;;;5.85;91.59;96834.41;5073386;28;20724;-83
2021/12/05 04:39:28;;;;;;;4.60;1.60;;;;;;;5.87;91.29;96833.38;5058259;28;20633;-83
2021/12/05 04:41:58;;;;;;;2.70;1.30;;;;;;;5.91;90.57;96836.56;5052688;28;21168;-83
2021/12/05 04:44:27;;;;;;;5.00;1.70;;;;;;;5.95;90.73;96835.44;5097231;28;20667;-83
2021/12/05 04:47:00;;;;;;;4.20;1.57;;;;;;;5.97;90.23;96834.41;5058226;28;21219;-83
2021/12/05 04:49:31;;;;;;;5.33;1.40;;;;;;;6.01;90.22;96832.44;5096830;28;21237;-83
2021/12/05 04:52:01;;;;;;;3.30;1.37;;;;;;;6.04;90.38;96838.19;5062029;28;20664;-84
2021/12/05 04:54:29;;;;;;;3.10;1.50;;;;;;;6.04;89.38;96845.16;5066010;28;20616;-83
2021/12/05 04:56:59;;;;;;;3.10;1.40;;;;;;;6.06;89.89;96845.84;5060316;28;20639;-83
2021/12/05 04:59:35;;;;;;;2.33;1.20;;;;;;;6.01;88.88;96850.53;5062691;28;21226;-83
2021/12/05 05:02:05;;;;;;;4.10;1.27;;;;;;;5.90;89.04;96850.47;5050800;28;20631;-83
2021/12/05 05:04:41;;;;;;;2.33;1.20;;;;;;;5.84;89.05;96858.66;5052995;28;20621;-83
2021/12/05 05:07:16;;;;;;;4.00;1.67;;;;;;;5.73;89.06;96849.00;5064048;28;20655;-83
2021/12/05 05:09:45;;;;;;;7.60;1.50;;;;;;;5.65;88.98;96848.72;5062607;28;20643;-83
2021/12/05 05:12:15;;;;;;;3.60;1.20;;;;;;;5.61;89.53;96852.44;5066876;28;20690;-83
2021/12/05 05:14:43;;;;;;;4.67;1.30;;;;;;;5.56;89.28;96845.91;5043363;28;21180;-83
2021/12/05 05:17:12;;;;;;;2.30;1.23;;;;;;;5.55;89.04;96849.47;5068373;28;20628;-83
2021/12/05 05:19:44;;;;;;;4.57;1.67;;;;;;;5.52;89.08;96846.25;5063145;28;20631;-83
2021/12/05 05:22:22;;;;;;;5.00;1.47;;;;;;;5.50;88.40;96836.00;5063243;28;20628;-83
2021/12/05 05:44:46;;;;;;;6.80;1.60;;;;;;;5.58;88.86;96856.16;5029128;28;20624;-83
2021/12/05 05:47:27;;;;;;;3.63;1.40;;;;;;;5.60;88.54;96859.50;5081081;28;20654;-83
2021/12/05 05:49:58;;;;;;;1.70;1.17;;;;;;;5.60;88.16;96855.94;5060151;28;20639;-83
2021/12/05 05:52:29;;;;;;;2.70;1.40;;;;;;;5.58;88.18;96854.44;5089252;28;20648;-83
2021/12/05 05:54:59;;;;;;;1.70;1.07;;;;;;;5.55;88.35;96857.22;5064040;28;21167;-83
2021/12/05 05:57:33;;;;;;;2.40;1.20;;;;;;;5.53;87.46;96860.81;5054739;28;20750;-83
2021/12/05 06:00:11;;;;;;;6.10;1.33;;;;;;;5.48;87.23;96861.13;5077900;28;20984;-83
2021/12/05 06:05:30;;;;;;;3.67;1.27;;;;;;;5.49;87.81;96865.38;5060722;28;20638;-83
2021/12/05 06:07:59;;;;;;;2.47;1.03;;;;;;;5.52;87.87;96870.34;5058718;28;20766;-83
2021/12/05 06:10:30;;;;;;;6.10;1.30;;;;;;;5.58;88.21;96867.34;5060954;28;20627;-83
2021/12/05 06:12:58;;;;;;;3.73;1.47;;;;;;;5.60;87.12;96864.66;5060074;28;21256;-83
2021/12/05 06:15:29;;;;;;;6.53;1.53;;;;;;;5.49;86.71;96867.97;5063487;28;20627;-83
2021/12/05 06:17:59;;;;;;;3.40;1.10;;;;;;;5.49;87.21;96861.97;5099276;28;21180;-83
2021/12/05 06:20:30;;;;;;;1.80;1.00;;;;;;;5.43;87.70;96868.38;5049405;28;20642;-83
2021/12/05 06:23:01;;;;;;;2.20;0.90;;;;;;;5.44;87.66;96870.06;5050599;28;20633;-83
2021/12/05 06:25:31;;;;;;;2.83;0.97;;;;;;;5.42;87.70;96871.91;5050926;28;20627;-83
2021/12/05 06:28:02;;;;;;;1.73;1.17;;;;;;;5.49;88.21;96872.28;5054730;28;21313;-83
2021/12/05 06:30:41;;;;;;;2.57;0.90;;;;;;;5.55;87.69;96871.88;5062348;28;20690;-83
2021/12/05 06:41:35;;;;;;;3.83;1.33;;;;;;;5.77;86.94;96873.78;5049899;28;20612;-83
2021/12/05 06:46:53;;;;;;;4.40;1.23;;;;;;;5.71;86.95;96892.28;5073769;28;20612;-83
2021/12/05 06:49:21;;;;;;;3.37;0.80;;;;;;;5.73;87.45;96895.56;5040051;28;20743;-83
2021/12/05 06:51:49;;;;;;;4.80;1.07;;;;;;;5.78;87.10;96890.13;5054492;28;20653;-83
2021/12/05 06:54:17;;;;;;;3.97;1.07;;;;;;;5.81;86.96;96882.16;5060248;28;20636;-83
2021/12/05 06:56:45;;;;;;;2.80;0.87;;;;;;;5.80;87.71;96886.50;5050015;28;20704;-83
2021/12/05 06:59:13;;;;;;;2.83;1.30;;;;;;;5.74;86.20;96888.66;5052883;28;20640;-83
2021/12/05 07:01:42;;;;;;;4.73;1.00;;;;;;;5.72;86.24;96887.91;5041784;28;20711;-83
2021/12/05 07:04:24;;;;;;;4.00;1.07;;;;;;;5.72;87.05;96890.50;5045372;28;20630;-83
2021/12/05 07:06:52;;;;;;;2.30;1.17;;;;;;;5.73;86.63;96882.63;5061475;28;20654;-83
2021/12/05 07:09:23;;;;;;;2.27;1.10;;;;;;;5.72;86.46;96895.66;5059804;28;21233;-83
2021/12/05 07:12:08;;;;;;;3.27;1.00;;;;;;;5.73;86.67;96887.81;5055781;28;20655;-83
2021/12/05 07:14:44;;;;;;;2.17;1.13;;;;;;;5.73;87.12;96892.97;5061160;28;21230;-83
2021/12/05 07:20:00;;;;;;;4.60;1.97;;;;;;;5.80;86.37;96888.25;5050800;28;20625;-83
2021/12/05 07:22:36;;;;;;;10.10;5.43;;;;;;;5.82;86.52;96887.22;5077566;28;20632;-83
2021/12/05 07:25:10;;;;;;;3.60;1.50;;;;;;;5.72;86.46;96890.50;5057852;28;20633;-83
2021/12/05 07:41:42;;;;;;;2.90;1.70;;;;;;;5.49;87.42;96913.66;5058622;28;20641;-83
2021/12/05 07:44:11;;;;;;;5.30;2.13;;;;;;;5.49;87.17;96918.81;5039718;28;21260;-83
2021/12/05 07:46:40;;;;;;;3.00;1.37;;;;;;;5.50;87.99;96913.56;5064503;28;20989;-83
2021/12/05 07:49:10;;;;;;;9.23;6.50;;;;;;;5.55;88.30;96921.00;5052639;28;20977;-83
2021/12/05 07:51:44;;;;;;;4.43;2.13;;;;;;;5.58;88.04;96918.22;5061640;28;20625;-83
2021/12/05 07:54:26;;;;;;;5.20;3.03;;;;;;;5.60;88.35;96907.66;5062335;28;20734;-83
2021/12/05 07:57:03;;;;;;;11.23;7.77;;;;;;;5.60;87.47;96913.78;5055292;28;20699;-83
2021/12/05 07:59:45;;;;;;;12.43;8.67;;;;;;;5.60;87.13;96912.03;5080624;28;20731;-83
2021/12/05 08:16:08;;;;;;;5.27;2.63;;;;;;;5.65;88.22;96922.88;5079697;28;20627;-83
2021/12/05 08:18:42;;;;;;;5.10;1.67;;;;;;;5.67;88.31;96916.66;5063208;28;21186;-83
2021/12/05 08:21:11;;;;;;;4.37;2.13;;;;;;;5.68;88.41;96915.75;5083572;28;20627;-83
2021/12/05 08:23:41;;;;;;;5.13;1.43;;;;;;;5.71;88.24;96914.69;5058836;28;20631;-83
2021/12/05 08:26:14;;;;;;;3.80;1.60;;;;;;;5.72;87.69;96906.00;5060055;28;20631;-83
2021/12/05 08:28:57;;;;;;;5.50;1.60;;;;;;;5.80;88.03;96906.34;5060570;28;20704;-83
2021/12/05 08:31:35;;;;;;;4.20;2.03;;;;;;;5.90;87.66;96910.78;5068508;28;20730;-82
2021/12/05 08:34:19;;;;;;;4.10;1.80;;;;;;;5.96;87.50;96910.34;5057460;28;20645;-83
2021/12/05 09:22:29;;;;;;;9.53;6.70;;;;;;;7.10;88.04;96914.88;5052127;28;20627;-83
2021/12/05 09:30:54;;;;;;;7.13;5.27;;;;;;;7.29;87.49;96917.78;5052723;28;20639;-83
2021/12/05 10:02:11;;;;;;;9.37;4.07;;;;;;;7.84;83.18;96891.94;5068985;28;20625;-83
2021/12/05 10:07:53;;;;;;;5.53;3.17;;;;;;;8.21;83.61;96896.75;5013884;28;21234;-83
2021/12/05 10:10:32;;;;;;;3.07;1.83;;;;;;;8.49;82.27;96892.72;5064082;28;20628;-83
2021/12/05 10:13:13;;;;;;;4.57;1.47;;;;;;;8.45;79.17;96886.09;5060844;28;20649;-83
2021/12/05 10:38:20;;;;;;;2.57;1.00;;;;;;;8.22;78.42;96881.06;5061570;28;20731;-83
2021/12/05 10:40:59;;;;;;;3.83;1.00;;;;;;;8.20;77.37;96880.38;5072600;28;21211;-83
2021/12/05 10:43:28;;;;;;;5.60;1.10;;;;;;;8.17;79.53;96872.00;5064655;28;20639;-83
2021/12/05 10:46:03;;;;;;;2.33;1.10;;;;;;;8.27;79.07;96875.50;5039909;28;20652;-83
2021/12/05 10:48:34;;;;;;;1.47;0.80;;;;;;;8.23;77.83;96872.34;5057394;28;20648;-83
2021/12/05 10:51:05;;;;;;;3.83;1.53;;;;;;;8.24;78.58;96867.97;5060280;28;20616;-82
2021/12/05 10:53:41;;;;;;;2.07;1.00;;;;;;;8.27;78.71;96865.97;5058402;28;20652;-83
2021/12/05 10:56:22;;;;;;;5.40;1.30;;;;;;;8.34;79.74;96872.31;5036628;28;20723;-83
2021/12/05 10:58:57;;;;;;;2.90;1.17;;;;;;;8.55;79.46;96866.25;5061595;28;20639;-83
2021/12/05 11:01:32;;;;;;;6.87;2.10;;;;;;;8.81;78.05;96866.75;5060700;28;20637;-83
2021/12/05 11:04:03;;;;;;;8.20;1.10;;;;;;;8.92;76.90;96869.31;5043722;28;20722;-83
2021/12/05 11:06:36;;;;;;;2.35;1.27;;;;;;;8.77;76.92;96867.97;5055550;28;20681;-83
2021/12/05 11:09:10;;;;;;;2.57;1.10;;;;;;;8.59;77.47;96872.84;5056894;28;20617;-83
2021/12/05 11:11:38;;;;;;;1.60;0.90;;;;;;;8.62;78.22;96863.97;5048664;28;20628;-83
2021/12/05 11:14:13;;;;;;;2.70;1.30;;;;;;;8.63;77.54;96868.22;5058574;28;20657;-83
2021/12/05 11:16:54;;;;;;;2.83;1.30;;;;;;;8.60;77.81;96874.50;5059562;28;21051;-83
2021/12/05 11:19:26;;;;;;;3.10;1.43;;;;;;;8.57;76.55;96860.94;5051679;28;21172;-83
2021/12/05 11:21:57;;;;;;;2.33;1.20;;;;;;;8.60;78.03;96866.72;5051487;28;20627;-83
2021/12/05 11:24:30;;;;;;;3.43;1.47;;;;;;;8.68;77.09;96861.72;5059117;28;20651;-83
2021/12/05 11:27:24;;;;;;;2.30;1.10;;;;;;;8.75;77.35;96862.03;5058549;28;20635;-83
2021/12/05 11:30:00;;;;;;;1.97;1.00;;;;;;;8.71;77.79;96855.44;5056459;28;20635;-83
2021/12/05 11:32:37;;;;;;;3.57;1.17;;;;;;;8.64;77.42;96852.50;5058359;28;20732;-83
2021/12/05 11:35:21;;;;;;;2.60;1.00;;;;;;;8.59;78.42;96856.44;5055586;28;20739;-83
2021/12/05 11:37:52;;;;;;;4.10;1.27;;;;;;;8.59;77.97;96857.25;5051234;28;20621;-83
2021/12/05 11:40:22;;;;;;;3.20;1.33;;;;;;;8.60;76.72;96853.72;5043932;28;20710;-83
2021/12/05 11:42:53;;;;;;;1.80;1.10;;;;;;;8.56;77.45;96856.69;5068100;28;21181;-83
2021/12/05 11:45:21;;;;;;;5.70;1.37;;;;;;;8.56;76.91;96854.09;5058515;28;20692;-83
2021/12/05 11:47:51;;;;;;;1.87;1.20;;;;;;;8.57;78.88;96853.16;5051368;28;20690;-83
2021/12/05 11:50:19;;;;;;;2.53;1.00;;;;;;;8.59;78.50;96851.25;5089650;28;20641;-83
2021/12/05 11:52:49;;;;;;;1.63;0.93;;;;;;;8.68;78.55;96853.91;5056846;28;20614;-83
2021/12/05 11:55:24;;;;;;;2.70;1.23;;;;;;;8.74;77.55;96853.41;5045889;28;20703;-83
2021/12/05 11:57:52;;;;;;;5.80;1.77;;;;;;;8.76;77.62;96848.91;5051838;28;20715;-83
2021/12/05 12:00:23;;;;;;;4.00;1.30;;;;;;;8.76;77.80;96851.50;5044119;28;20632;-83
2021/12/05 12:02:52;;;;;;;4.27;1.70;;;;;;;8.76;76.20;96848.09;5055315;28;21160;-83
2021/12/05 12:05:23;;;;;;;2.70;1.10;;;;;;;8.83;77.30;96844.06;5053221;28;20737;-83
2021/12/05 12:07:53;;;;;;;2.67;1.80;;;;;;;8.90;76.16;96848.66;5059307;28;20754;-83
2021/12/05 12:10:25;;;;;;;5.33;1.80;;;;;;;8.92;75.95;96843.31;5059271;28;20629;-83
2021/12/05 12:12:57;;;;;;;3.93;1.33;;;;;;;8.87;75.49;96840.25;5061562;28;20630;-83
2021/12/05 12:15:27;;;;;;;6.13;4.10;;;;;;;8.77;76.00;96839.38;5046653;28;20692;-83
2021/12/05 12:18:04;;;;;;;3.83;2.03;;;;;;;8.75;76.10;96841.25;5061755;28;20685;-83
2021/12/05 12:20:34;;;;;;;2.03;1.40;;;;;;;8.67;77.24;96839.25;5071900;28;20668;-83
2021/12/05 12:23:03;;;;;;;3.60;1.20;;;;;;;8.60;77.39;96838.13;5060137;28;20672;-82
2021/12/05 12:25:35;;;;;;;5.03;1.80;;;;;;;8.49;77.11;96839.91;5068482;28;20753;-82
2021/12/05 12:28:04;;;;;;;6.70;2.43;;;;;;;8.39;77.50;96839.03;5044324;28;20715;-83
2021/12/05 12:30:37;;;;;;;4.60;2.67;;;;;;;8.34;79.12;96841.13;5061567;28;21081;-83
2021/12/05 12:33:08;;;;;;;2.83;1.60;;;;;;;8.32;79.30;96842.22;5049164;28;20731;-83
2021/12/05 12:35:38;;;;;;;3.37;1.77;;;;;;;8.31;78.77;96841.38;5089827;28;20645;-83
2021/12/05 12:38:08;;;;;;;6.50;1.97;;;;;;;8.32;79.02;96845.63;5063224;28;20662;-83
2021/12/05 12:40:44;;;;;;;4.00;1.40;;;;;;;8.34;78.96;96842.91;5057340;28;20719;-83
2021/12/05 12:43:39;;;;;;;3.87;1.07;;;;;;;8.36;80.33;96838.41;5038862;28;21441;-83
2021/12/05 12:46:33;;;;;;;2.90;1.27;;;;;;;8.41;79.86;96841.50;5056553;28;21203;-83
2021/12/05 12:49:28;;;;;;;2.70;1.70;;;;;;;8.55;78.38;96839.44;5056270;28;20683;-83
2021/12/05 12:51:59;;;;;;;4.63;2.60;;;;;;;8.59;76.02;96841.66;5053303;28;20652;-82
2021/12/05 12:54:30;;;;;;;3.33;1.60;;;;;;;8.59;77.40;96839.06;5049249;28;20652;-82
2021/12/05 12:57:09;;;;;;;1.77;1.10;;;;;;;8.49;76.32;96840.75;5066028;28;21227;-82
2021/12/05 12:59:41;;;;;;;1.73;0.83;;;;;;;8.41;77.15;96842.31;5055039;28;20619;-82
2021/12/05 13:02:37;;;;;;;2.60;1.40;;;;;;;8.44;76.10;96842.06;5059902;28;20632;-82
2021/12/05 13:05:34;;;;;;;2.60;1.10;;;;;;;8.53;78.60;96844.75;5062121;28;20609;-82
2021/12/05 13:10:59;;;;;;;8.47;3.13;;;;;;;8.49;75.18;96845.13;5063049;28;20679;-83
2021/12/05 13:13:29;;;;;;;5.43;2.40;;;;;;;8.47;76.43;96847.84;5063776;28;20638;-82
2021/12/05 13:16:05;;;;;;;3.80;2.00;;;;;;;8.50;78.06;96852.78;5069265;28;20651;-82
2021/12/05 13:18:35;;;;;;;3.20;1.20;;;;;;;8.50;77.12;96864.97;5064208;28;20734;-83
2021/12/05 13:21:08;;;;;;;7.37;3.87;;;;;;;8.46;77.45;96860.94;5079184;28;20659;-82
2021/12/05 13:23:39;;;;;;;5.53;2.03;;;;;;;8.45;77.35;96857.53;5063792;28;20639;-83
2021/12/05 13:26:26;;;;;;;3.40;1.80;;;;;;;8.26;75.67;96861.72;5067905;28;20650;-83
2021/12/05 13:28:58;;;;;;;9.37;2.30;;;;;;;8.21;77.12;96850.88;5071747;28;20715;-82
2021/12/05 13:31:33;;;;;;;3.27;1.50;;;;;;;8.21;77.29;96850.88;5060247;28;20636;-82
2021/12/05 13:34:27;;;;;;;3.60;1.57;;;;;;;8.26;77.30;96845.31;5063953;28;20679;-82
2021/12/05 13:37:00;;;;;;;4.07;1.80;;;;;;;8.28;77.21;96849.41;5059296;28;20719;-83
2021/12/05 13:39:30;;;;;;;4.20;2.20;;;;;;;8.31;77.16;96849.16;5056763;28;20592;-83
2021/12/05 13:42:05;;;;;;;24.57;13.43;;;;;;;8.26;78.02;96853.91;5056612;28;20660;-83
2021/12/05 13:45:05;;;;;;;5.80;3.93;;;;;;;8.25;77.11;96860.03;5059472;28;20628;-83
2021/12/05 13:47:38;;;;;;;3.50;1.83;;;;;;;8.35;77.95;96871.38;5066341;28;20659;-83
2021/12/05 13:50:29;;;;;;;3.67;1.90;;;;;;;8.44;79.14;96862.84;5068278;28;21277;-83
2021/12/05 13:53:16;;;;;;;2.67;1.50;;;;;;;8.47;78.29;96870.41;5066197;28;21278;-82
2021/12/05 13:55:46;;;;;;;3.30;1.83;;;;;;;8.48;80.59;96866.88;5058841;28;20702;-83
2021/12/05 13:58:27;;;;;;;1.97;1.50;;;;;;;8.43;79.69;96876.78;5092085;28;20704;-83
2021/12/05 14:01:00;;;;;;;3.22;2.15;;;;;;;8.43;79.25;96879.38;5077067;28;20737;-82
2021/12/05 14:03:54;;;;;;;3.53;1.67;;;;;;;8.36;78.53;96874.78;5054998;28;20675;-83
2021/12/05 14:06:41;;;;;;;1.90;1.20;;;;;;;8.18;77.65;96878.84;5063172;28;20648;-82
2021/12/05 14:09:14;;;;;;;3.27;1.30;;;;;;;8.04;78.48;96879.91;5056447;28;20686;-82
2021/12/05 14:11:46;;;;;;;5.60;3.70;;;;;;;7.93;79.08;96883.44;5094878;28;20635;-82
2021/12/05 14:14:15;;;;;;;3.10;2.60;;;;;;;7.54;80.56;96889.06;5094449;28;20677;-83
2021/12/05 14:16:45;;;;;;;3.60;2.67;;;;;;;7.03;80.68;96892.13;5093988;28;20722;-82
2021/12/05 14:19:16;;;;;;;2.90;2.60;;;;;;;6.91;80.86;96895.63;5058810;28;20635;-83
2021/12/05 14:21:46;;;;;;;1.93;1.20;;;;;;;6.86;81.06;96896.91;5070820;28;20612;-82
2021/12/05 14:24:16;;;;;;;2.00;0.83;;;;;;;6.92;81.55;96906.81;5065210;28;20625;-82
2021/12/05 14:26:47;;;;;;;2.83;2.50;;;;;;;6.95;81.36;96915.19;5059117;28;21291;-82
2021/12/05 14:29:17;;;;;;;5.87;3.50;;;;;;;6.94;81.35;96905.75;5059045;28;21025;-82
2021/12/05 14:31:49;;;;;;;1.90;1.00;;;;;;;6.80;80.41;96910.31;5094439;28;21262;-82
2021/12/05 14:34:18;;;;;;;2.30;1.00;;;;;;;6.67;81.87;96909.53;5067205;28;21198;-82
2021/12/05 14:36:48;;;;;;;2.30;1.70;;;;;;;6.70;81.26;96911.88;5058340;28;20677;-82
2021/12/05 14:39:23;;;;;;;2.60;1.60;;;;;;;6.73;81.67;96916.84;5061072;28;20634;-83
2021/12/05 14:41:58;;;;;;;2.57;1.40;;;;;;;6.80;83.36;96928.44;5069063;28;20983;-82
2021/12/05 14:44:27;;;;;;;2.40;1.33;;;;;;;6.83;83.44;96936.00;5064746;28;20654;-83
2021/12/05 14:46:58;;;;;;;1.80;1.30;;;;;;;6.81;82.58;96945.63;5039729;28;20624;-82
2021/12/05 14:49:29;;;;;;;2.10;1.40;;;;;;;6.69;83.45;96946.50;5085457;28;20636;-83
2021/12/05 14:51:58;;;;;;;2.20;1.13;;;;;;;6.54;84.43;96952.78;5067522;28;20651;-84
2021/12/05 14:54:32;;;;;;;1.80;1.10;;;;;;;6.43;84.59;96959.66;5090950;28;20629;-85
2021/12/05 14:57:06;;;;;;;1.80;1.10;;;;;;;6.22;85.45;96950.78;5060550;28;21013;-86
2021/12/05 14:59:34;;;;;;;2.17;0.77;;;;;;;6.14;85.93;96956.50;5066624;28;20689;-86
2021/12/05 15:02:04;;;;;;;3.17;1.37;;;;;;;6.09;86.68;96966.34;5055482;28;20694;-85
2021/12/05 15:04:38;;;;;;;8.87;2.53;;;;;;;6.14;86.53;96968.59;5046975;28;21237;-85
2021/12/05 15:07:06;;;;;;;5.23;2.10;;;;;;;5.97;86.65;96968.94;5064237;28;20652;-85
2021/12/05 15:09:38;;;;;;;1.70;0.93;;;;;;;5.73;87.24;96965.41;5072049;28;20663;-85
2021/12/05 15:12:09;;;;;;;5.37;2.77;;;;;;;5.61;88.18;96967.97;5055759;28;20995;-85
2021/12/05 15:14:39;;;;;;;3.00;1.50;;;;;;;5.51;89.22;96968.69;5066081;28;20629;-85
2021/12/05 15:17:11;;;;;;;2.10;1.27;;;;;;;5.41;88.54;96973.66;5081117;28;20665;-85
2021/12/05 15:19:42;;;;;;;2.40;1.20;;;;;;;5.28;89.15;96972.78;5058318;28;20613;-85
2021/12/05 15:22:30;;;;;;;2.77;1.33;;;;;;;5.08;90.26;96980.16;5065532;28;20985;-85
2021/12/05 15:25:02;;;;;;;3.90;1.07;;;;;;;5.02;90.03;96972.00;5058351;28;20618;-85
2021/12/05 15:27:33;;;;;;;3.10;1.60;;;;;;;4.98;90.02;96975.72;5059613;28;20726;-85
2021/12/05 15:30:05;;;;;;;3.70;3.30;;;;;;;5.01;90.84;96976.34;5050476;28;20724;-85
2021/12/05 15:32:33;;;;;;;11.33;8.73;;;;;;;5.05;90.27;96982.97;5056622;28;20635;-85
2021/12/05 15:35:03;;;;;;;1.70;1.20;;;;;;;5.02;90.13;96987.50;5095151;28;20656;-85
2021/12/05 15:37:33;;;;;;;1.43;0.90;;;;;;;5.09;91.59;96981.00;5052996;28;20660;-85
2021/12/05 15:40:06;;;;;;;40.30;23.20;;;;;;;5.13;90.27;96996.22;5065506;28;21199;-85
2021/12/05 15:42:37;;;;;;;14.10;8.20;;;;;;;5.15;90.57;96991.78;5056171;28;21010;-85
2021/12/05 15:45:10;;;;;;;1.77;0.87;;;;;;;5.20;90.62;96995.72;5042299;28;20618;-85
2021/12/05 15:47:39;;;;;;;4.10;1.07;;;;;;;5.23;90.57;96995.53;5094386;28;20998;-85
2021/12/05 15:50:08;;;;;;;1.70;0.83;;;;;;;5.29;90.50;96996.88;5076000;28;20667;-85
2021/12/05 15:52:44;;;;;;;1.70;0.90;;;;;;;5.29;90.09;97002.88;5061264;28;20643;-85
2021/12/05 15:55:19;;;;;;;1.53;0.80;;;;;;;5.35;89.98;97007.66;5056566;28;20677;-85
2021/12/05 15:57:52;;;;;;;1.37;0.90;;;;;;;5.38;90.32;97009.19;5058011;28;21231;-85
2021/12/05 16:00:24;;;;;;;1.90;1.13;;;;;;;5.41;90.89;97015.00;5074750;28;20653;-85
2021/12/05 16:02:58;;;;;;;2.50;1.20;;;;;;;5.42;89.50;97011.47;5042955;28;20672;-85
2021/12/05 16:05:27;;;;;;;3.37;1.20;;;;;;;5.44;90.63;97017.41;5058240;28;20646;-85
2021/12/05 16:08:03;;;;;;;2.73;1.40;;;;;;;5.46;90.29;97012.09;5061412;28;20632;-85
2021/12/05 16:10:33;;;;;;;3.83;1.40;;;;;;;5.46;89.60;97017.25;5096708;28;20632;-85
2021/12/05 16:13:10;;;;;;;7.43;1.60;;;;;;;5.45;89.77;97021.63;5054794;28;20619;-85
2021/12/05 16:15:39;;;;;;;2.17;1.27;;;;;;;5.44;89.65;97014.81;5078188;28;20625;-86
2021/12/05 16:18:08;;;;;;;2.57;1.40;;;;;;;5.41;89.09;97019.34;5041713;28;20620;-86
2021/12/05 16:20:40;;;;;;;3.60;3.00;;;;;;;5.34;89.24;97026.66;5057437;28;20616;-85
2021/12/05 16:23:32;;;;;;;2.57;2.10;;;;;;;5.24;89.30;97017.84;5060784;28;21174;-85
2021/12/05 16:26:06;;;;;;;4.83;2.60;;;;;;;5.18;90.10;97020.81;5054112;28;20667;-85
2021/12/05 16:28:37;;;;;;;4.23;2.33;;;;;;;5.15;89.73;97021.00;5048652;28;21429;-85
2021/12/05 16:31:10;;;;;;;2.93;1.30;;;;;;;5.14;89.38;97021.97;5059337;28;20621;-85
2021/12/05 16:33:44;;;;;;;1.77;1.50;;;;;;;5.15;90.67;97028.75;5059213;28;21169;-85
2021/12/05 16:36:13;;;;;;;4.93;3.30;;;;;;;5.18;89.97;97032.91;5052751;28;20652;-86
2021/12/05 16:38:43;;;;;;;3.40;2.90;;;;;;;5.15;89.84;97038.28;5053784;28;20673;-85
2021/12/05 16:41:18;;;;;;;2.93;2.10;;;;;;;5.16;89.93;97027.84;5069518;28;20632;-86